Архив погоды в Канадее

Метеограмма Канадей
Вторник, 23 Апреля
Время местн. Темп Ветер Видим Явления Облачность нижн/средн/верх Атм. давл. Влжн Точка росы ВНГО R Сост. почвы Tg s
Напр Скр Прв ур.ст ур.м изм
18:00 +15° С 4 - 20 км - преимущественно облачно 758 767 -0.2 30% -2.2° 1 км - - - -
15:00 +16.9° С-З 3 - 20 км - преимущественно облачно 758 767 -0.2 23% -4.4° - - - - -
12:00 +18.1° С 4 - 20 км - преимущественно облачно 758 767 -0.7 16% -7.9° 1 км - - - -
09:00 +15° С-З 3 - 20 км - облачно с прояснениями 759 768 -0.5 31% -1.9° более 2.5 км - - - -
06:00 +1.1° З 2 - 20 км - облачно с прояснениями 759 769 -0.1 72% -3.4° более 2.5 км - Влажная (без луж) - -
03:00 +1.5° З 1 - 10 км - облачно 759 769 +0.1 69% -3.5° - - - - -
00:00 +3.6° З,С-З 2 - 10 км - облачно 759 769 +0.1 63% -2.8° - - - - -
Понедельник, 22 Апреля
Время местн. Темп Ветер Видим Явления Облачность нижн/средн/верх Атм. давл. Влжн Точка росы ВНГО R Сост. почвы Tg s
Напр Скр Прв ур.ст ур.м изм
21:00 +11.1° В 1 - 10 км - облачно 759 768 +0.5 33% -4.6° - - - - -
18:00 +17.5° С 1 - 50 км - облачно 759 768 -0.8 19% -6.1° - - - - -
15:00 +18.3° С,С-В 3 - 50 км - облачно 760 769 -1.1 16% -7.9° более 2.5 км - - - -
12:00 +16.6° В 2 - 50 км - облачно с прояснениями 761 770 -1 21% -5.5° более 2.5 км - - - -
09:00 +12.4° Ю-З 2 - 50 км - облачно 762 771 -0.3 33% -3.3° более 2.5 км - - - -
06:00 -1.4° З 1 - 50 км - облачно 762 772 +0.5 76% -5° более 2.5 км - Замерзшая - -
03:00 -1.9° З 2 - 10 км - облачно 762 771 +0.5 77% -5.4° более 2.5 км - - - -
00:00 -0.7° З,С-З 1 - 10 км - переменная облачность 762 771 +0.5 72% -5.1° более 2.5 км - - - -
Воскресенье, 21 Апреля
Время местн. Темп Ветер Видим Явления Облачность нижн/средн/верх Атм. давл. Влжн Точка росы ВНГО R Сост. почвы Tg s
Напр Скр Прв ур.ст ур.м изм
21:00 +6.8° штиль 0 - 10 км - ясно 761 770 +1.1 41% -5.6° более 2.5 км - - - -
18:00 +14.4° В,С-В 3 - 50 км - переменная облачность 760 769 -0.2 24% -5.8° - - - - -
15:00 +16° В,С-В 3 - 50 км - переменная облачность 760 769 -0.8 18% -8° - - - - -
12:00 +14.9° С,С-З 3 - 50 км - переменная облачность 761 770 -0.8 19% -8.5° - - - - -
09:00 +8.1° Ю-В 1 - 10 км - облачно 762 771 +0.2 35% -6.6° более 2.5 км - - - -
06:00 -4.5° З,С-З 1 - 20 км - переменная облачность 762 771 +0.5 79% -7.5° более 2.5 км - Замерзшая - -
03:00 -3.8° штиль 0 - 10 км - ясно 761 771 0 77% -7.2° более 2.5 км - - - -
00:00 -1.3° З 1 - 10 км - ясно 761 771 +0.4 64% -7.2° более 2.5 км - - - -
Суббота, 20 Апреля
Время местн. Темп Ветер Видим Явления Облачность нижн/средн/верх Атм. давл. Влжн Точка росы ВНГО R Сост. почвы Tg s
Напр Скр Прв ур.ст ур.м изм
21:00 +6.6° В 2 - 10 км - переменная облачность 761 770 +1.3 30% -9.5° - - - - -
18:00 +12.5° штиль 0 - 50 км - облачно с прояснениями 759 768 -0.2 24% -7.5° - - - - -
15:00 +13.4° С-В 1 - 50 км - переменная облачность 760 769 -0.5 17% -10.8° - - - - -